sensor_id;sensor_type;location;lat;lon;timestamp;temperature;humidity
41294;DHT22;27037;52.010;4.446;2023-04-01T00:02:17;9.70;99.90
41294;DHT22;27037;52.010;4.446;2023-04-01T00:04:42;9.60;99.90
41294;DHT22;27037;52.010;4.446;2023-04-01T00:07:08;9.60;99.90
41294;DHT22;27037;52.010;4.446;2023-04-01T00:09:34;9.60;99.90
41294;DHT22;27037;52.010;4.446;2023-04-01T00:12:00;9.60;99.90
41294;DHT22;27037;52.010;4.446;2023-04-01T00:14:26;9.60;99.90
41294;DHT22;27037;52.010;4.446;2023-04-01T00:16:52;9.60;99.90
41294;DHT22;27037;52.010;4.446;2023-04-01T00:19:18;9.60;99.90
41294;DHT22;27037;52.010;4.446;2023-04-01T00:21:44;9.60;99.90
41294;DHT22;27037;52.010;4.446;2023-04-01T00:24:09;9.60;99.90
41294;DHT22;27037;52.010;4.446;2023-04-01T00:26:35;9.50;99.90
41294;DHT22;27037;52.010;4.446;2023-04-01T00:29:00;9.50;99.90
41294;DHT22;27037;52.010;4.446;2023-04-01T00:31:26;9.50;99.90
41294;DHT22;27037;52.010;4.446;2023-04-01T00:33:52;9.50;99.90
41294;DHT22;27037;52.010;4.446;2023-04-01T00:36:20;9.50;99.90
41294;DHT22;27037;52.010;4.446;2023-04-01T00:38:47;9.50;99.90
41294;DHT22;27037;52.010;4.446;2023-04-01T00:41:14;9.50;99.90
41294;DHT22;27037;52.010;4.446;2023-04-01T00:43:42;9.50;99.90
41294;DHT22;27037;52.010;4.446;2023-04-01T00:46:08;9.50;99.90
41294;DHT22;27037;52.010;4.446;2023-04-01T00:48:36;9.50;99.90
41294;DHT22;27037;52.010;4.446;2023-04-01T00:51:08;9.50;99.90
41294;DHT22;27037;52.010;4.446;2023-04-01T00:53:38;9.50;99.90
41294;DHT22;27037;52.010;4.446;2023-04-01T00:56:12;9.40;99.90
41294;DHT22;27037;52.010;4.446;2023-04-01T00:58:42;9.40;99.90
41294;DHT22;27037;52.010;4.446;2023-04-01T01:01:09;9.50;99.90
41294;DHT22;27037;52.010;4.446;2023-04-01T01:03:35;9.40;99.90
41294;DHT22;27037;52.010;4.446;2023-04-01T01:08:48;9.40;99.90
41294;DHT22;27037;52.010;4.446;2023-04-01T01:11:25;9.40;99.90
41294;DHT22;27037;52.010;4.446;2023-04-01T01:16:45;9.40;99.90
41294;DHT22;27037;52.010;4.446;2023-04-01T01:25:16;9.40;99.90
41294;DHT22;27037;52.010;4.446;2023-04-01T01:27:54;9.40;99.90
41294;DHT22;27037;52.010;4.446;2023-04-01T01:30:42;9.40;99.90
41294;DHT22;27037;52.010;4.446;2023-04-01T01:33:39;9.40;99.90
41294;DHT22;27037;52.010;4.446;2023-04-01T01:36:12;9.40;99.90
41294;DHT22;27037;52.010;4.446;2023-04-01T01:38:39;9.40;99.90
41294;DHT22;27037;52.010;4.446;2023-04-01T01:41:07;9.40;99.90
41294;DHT22;27037;52.010;4.446;2023-04-01T01:43:39;9.40;99.90
41294;DHT22;27037;52.010;4.446;2023-04-01T01:46:11;9.40;99.90
41294;DHT22;27037;52.010;4.446;2023-04-01T01:48:37;9.40;99.90
41294;DHT22;27037;52.010;4.446;2023-04-01T01:51:05;9.40;99.90
41294;DHT22;27037;52.010;4.446;2023-04-01T01:53:31;9.40;99.90
41294;DHT22;27037;52.010;4.446;2023-04-01T01:55:57;9.40;99.90
41294;DHT22;27037;52.010;4.446;2023-04-01T01:58:30;9.40;99.90
41294;DHT22;27037;52.010;4.446;2023-04-01T02:00:59;9.40;99.90
41294;DHT22;27037;52.010;4.446;2023-04-01T02:03:29;9.40;99.90
41294;DHT22;27037;52.010;4.446;2023-04-01T02:05:57;9.40;99.90
41294;DHT22;27037;52.010;4.446;2023-04-01T02:11:19;9.40;99.90
41294;DHT22;27037;52.010;4.446;2023-04-01T02:14:01;9.40;99.90
41294;DHT22;27037;52.010;4.446;2023-04-01T02:17:06;9.40;99.90
41294;DHT22;27037;52.010;4.446;2023-04-01T02:19:26;9.40;99.90
41294;DHT22;27037;52.010;4.446;2023-04-01T02:21:56;9.40;99.90
41294;DHT22;27037;52.010;4.446;2023-04-01T02:24:24;9.40;99.90
41294;DHT22;27037;52.010;4.446;2023-04-01T02:26:51;9.40;99.90
41294;DHT22;27037;52.010;4.446;2023-04-01T02:29:20;9.40;99.90
41294;DHT22;27037;52.010;4.446;2023-04-01T02:31:47;9.50;99.90
41294;DHT22;27037;52.010;4.446;2023-04-01T02:34:14;9.50;99.90
41294;DHT22;27037;52.010;4.446;2023-04-01T02:36:39;9.50;99.90
41294;DHT22;27037;52.010;4.446;2023-04-01T02:39:06;9.50;99.90
41294;DHT22;27037;52.010;4.446;2023-04-01T02:41:31;9.50;99.90
41294;DHT22;27037;52.010;4.446;2023-04-01T02:44:03;9.50;99.90
41294;DHT22;27037;52.010;4.446;2023-04-01T02:46:29;9.50;99.90
41294;DHT22;27037;52.010;4.446;2023-04-01T02:48:55;9.50;99.90
41294;DHT22;27037;52.010;4.446;2023-04-01T02:51:20;9.50;99.90
41294;DHT22;27037;52.010;4.446;2023-04-01T02:53:46;9.50;99.90
41294;DHT22;27037;52.010;4.446;2023-04-01T02:56:11;9.50;99.90
41294;DHT22;27037;52.010;4.446;2023-04-01T02:58:37;9.50;99.90
41294;DHT22;27037;52.010;4.446;2023-04-01T03:01:02;9.50;99.90
41294;DHT22;27037;52.010;4.446;2023-04-01T03:03:28;9.50;99.90
41294;DHT22;27037;52.010;4.446;2023-04-01T03:05:53;9.50;99.90
41294;DHT22;27037;52.010;4.446;2023-04-01T03:08:21;9.50;99.90
41294;DHT22;27037;52.010;4.446;2023-04-01T03:10:47;9.60;99.90
41294;DHT22;27037;52.010;4.446;2023-04-01T03:13:12;9.50;99.90
41294;DHT22;27037;52.010;4.446;2023-04-01T03:15:38;9.60;99.90
41294;DHT22;27037;52.010;4.446;2023-04-01T03:18:03;9.60;99.90
41294;DHT22;27037;52.010;4.446;2023-04-01T03:20:29;9.60;99.90
41294;DHT22;27037;52.010;4.446;2023-04-01T03:22:55;9.60;99.90
41294;DHT22;27037;52.010;4.446;2023-04-01T03:25:20;9.60;99.90
41294;DHT22;27037;52.010;4.446;2023-04-01T03:27:46;9.60;99.90
41294;DHT22;27037;52.010;4.446;2023-04-01T03:30:12;9.60;99.90
41294;DHT22;27037;52.010;4.446;2023-04-01T03:32:37;9.60;99.90
41294;DHT22;27037;52.010;4.446;2023-04-01T03:35:03;9.70;99.90
41294;DHT22;27037;52.010;4.446;2023-04-01T03:37:30;9.70;99.90
41294;DHT22;27037;52.010;4.446;2023-04-01T03:39:55;9.70;99.90
41294;DHT22;27037;52.010;4.446;2023-04-01T03:42:21;9.70;99.90
41294;DHT22;27037;52.010;4.446;2023-04-01T03:44:47;9.70;99.90
41294;DHT22;27037;52.010;4.446;2023-04-01T03:47:12;9.70;99.90
41294;DHT22;27037;52.010;4.446;2023-04-01T03:49:38;9.70;99.90
41294;DHT22;27037;52.010;4.446;2023-04-01T03:52:03;9.70;99.90
41294;DHT22;27037;52.010;4.446;2023-04-01T03:54:29;9.70;99.90
41294;DHT22;27037;52.010;4.446;2023-04-01T03:56:54;9.70;99.90
41294;DHT22;27037;52.010;4.446;2023-04-01T03:59:20;9.70;99.90
41294;DHT22;27037;52.010;4.446;2023-04-01T04:01:47;9.70;99.90
41294;DHT22;27037;52.010;4.446;2023-04-01T04:04:13;9.70;99.90
41294;DHT22;27037;52.010;4.446;2023-04-01T04:06:39;9.70;99.90
41294;DHT22;27037;52.010;4.446;2023-04-01T04:09:05;9.70;99.90
41294;DHT22;27037;52.010;4.446;2023-04-01T04:11:31;9.70;99.90
41294;DHT22;27037;52.010;4.446;2023-04-01T04:13:58;9.70;99.90
41294;DHT22;27037;52.010;4.446;2023-04-01T04:16:24;9.70;99.90
41294;DHT22;27037;52.010;4.446;2023-04-01T04:18:49;9.70;99.90
41294;DHT22;27037;52.010;4.446;2023-04-01T04:21:16;9.70;99.90
41294;DHT22;27037;52.010;4.446;2023-04-01T04:23:42;9.70;99.90
41294;DHT22;27037;52.010;4.446;2023-04-01T04:26:11;9.70;99.90
41294;DHT22;27037;52.010;4.446;2023-04-01T04:28:37;9.70;99.90
41294;DHT22;27037;52.010;4.446;2023-04-01T04:31:03;9.70;99.90
41294;DHT22;27037;52.010;4.446;2023-04-01T04:33:34;9.70;99.90
41294;DHT22;27037;52.010;4.446;2023-04-01T04:36:00;9.70;99.90
41294;DHT22;27037;52.010;4.446;2023-04-01T04:38:26;9.70;99.90
41294;DHT22;27037;52.010;4.446;2023-04-01T04:40:51;9.70;99.90
41294;DHT22;27037;52.010;4.446;2023-04-01T04:43:18;9.60;99.90
41294;DHT22;27037;52.010;4.446;2023-04-01T04:45:44;9.60;99.90
41294;DHT22;27037;52.010;4.446;2023-04-01T04:48:11;9.70;99.90
41294;DHT22;27037;52.010;4.446;2023-04-01T04:50:45;9.70;99.90
41294;DHT22;27037;52.010;4.446;2023-04-01T04:53:15;9.70;99.90
41294;DHT22;27037;52.010;4.446;2023-04-01T04:55:48;9.70;99.90
41294;DHT22;27037;52.010;4.446;2023-04-01T04:58:14;9.70;99.90
41294;DHT22;27037;52.010;4.446;2023-04-01T05:00:41;9.70;99.90
41294;DHT22;27037;52.010;4.446;2023-04-01T05:03:07;9.70;99.90
41294;DHT22;27037;52.010;4.446;2023-04-01T05:05:33;9.70;99.90
41294;DHT22;27037;52.010;4.446;2023-04-01T05:07:59;9.60;99.90
41294;DHT22;27037;52.010;4.446;2023-04-01T05:10:24;9.60;99.90
41294;DHT22;27037;52.010;4.446;2023-04-01T05:12:50;9.60;99.90
41294;DHT22;27037;52.010;4.446;2023-04-01T05:15:16;9.50;99.90
41294;DHT22;27037;52.010;4.446;2023-04-01T05:17:41;9.50;99.90
41294;DHT22;27037;52.010;4.446;2023-04-01T05:20:07;9.50;99.90
41294;DHT22;27037;52.010;4.446;2023-04-01T05:22:33;9.50;99.90
41294;DHT22;27037;52.010;4.446;2023-04-01T05:24:59;9.50;99.90
41294;DHT22;27037;52.010;4.446;2023-04-01T05:27:24;9.50;99.90
41294;DHT22;27037;52.010;4.446;2023-04-01T05:29:50;9.50;99.90
41294;DHT22;27037;52.010;4.446;2023-04-01T05:32:16;9.50;99.90
41294;DHT22;27037;52.010;4.446;2023-04-01T05:34:41;9.50;99.90
41294;DHT22;27037;52.010;4.446;2023-04-01T05:37:07;9.50;99.90
41294;DHT22;27037;52.010;4.446;2023-04-01T05:39:37;9.50;99.90
41294;DHT22;27037;52.010;4.446;2023-04-01T05:42:05;9.50;99.90
41294;DHT22;27037;52.010;4.446;2023-04-01T05:44:30;9.50;99.90
41294;DHT22;27037;52.010;4.446;2023-04-01T05:46:56;9.50;99.90
41294;DHT22;27037;52.010;4.446;2023-04-01T05:49:21;9.50;99.90
41294;DHT22;27037;52.010;4.446;2023-04-01T05:51:47;9.50;99.90
41294;DHT22;27037;52.010;4.446;2023-04-01T05:54:13;9.50;99.90
41294;DHT22;27037;52.010;4.446;2023-04-01T05:56:38;9.50;99.90
41294;DHT22;27037;52.010;4.446;2023-04-01T05:59:04;9.50;99.90
41294;DHT22;27037;52.010;4.446;2023-04-01T06:01:30;9.40;99.90
41294;DHT22;27037;52.010;4.446;2023-04-01T06:03:55;9.50;99.90
41294;DHT22;27037;52.010;4.446;2023-04-01T06:06:26;9.40;99.90
41294;DHT22;27037;52.010;4.446;2023-04-01T06:08:53;9.40;99.90
41294;DHT22;27037;52.010;4.446;2023-04-01T06:19:22;9.40;99.90
41294;DHT22;27037;52.010;4.446;2023-04-01T06:24:27;9.30;99.90
41294;DHT22;27037;52.010;4.446;2023-04-01T06:32:40;9.30;99.90
41294;DHT22;27037;52.010;4.446;2023-04-01T06:35:20;9.30;99.90
41294;DHT22;27037;52.010;4.446;2023-04-01T06:38:51;9.30;99.90
41294;DHT22;27037;52.010;4.446;2023-04-01T06:44:16;9.30;99.90
41294;DHT22;27037;52.010;4.446;2023-04-01T06:47:30;9.30;99.90
41294;DHT22;27037;52.010;4.446;2023-04-01T06:57:50;9.40;99.90
41294;DHT22;27037;52.010;4.446;2023-04-01T07:00:34;9.40;99.90
41294;DHT22;27037;52.010;4.446;2023-04-01T07:03:29;9.40;99.90
41294;DHT22;27037;52.010;4.446;2023-04-01T07:06:04;9.40;99.90
41294;DHT22;27037;52.010;4.446;2023-04-01T07:08:33;9.40;99.90
41294;DHT22;27037;52.010;4.446;2023-04-01T07:11:08;9.40;99.90
41294;DHT22;27037;52.010;4.446;2023-04-01T07:13:41;9.40;99.90
41294;DHT22;27037;52.010;4.446;2023-04-01T07:16:31;9.50;99.90
41294;DHT22;27037;52.010;4.446;2023-04-01T07:19:28;9.50;99.90
41294;DHT22;27037;52.010;4.446;2023-04-01T07:21:57;9.50;99.90
41294;DHT22;27037;52.010;4.446;2023-04-01T07:24:27;9.50;99.90
41294;DHT22;27037;52.010;4.446;2023-04-01T07:26:56;9.60;99.90
41294;DHT22;27037;52.010;4.446;2023-04-01T07:29:22;9.60;99.90
41294;DHT22;27037;52.010;4.446;2023-04-01T07:31:57;9.60;99.90
41294;DHT22;27037;52.010;4.446;2023-04-01T07:34:26;9.60;99.90
41294;DHT22;27037;52.010;4.446;2023-04-01T07:37:15;9.50;99.90
41294;DHT22;27037;52.010;4.446;2023-04-01T07:42:43;9.60;99.90
41294;DHT22;27037;52.010;4.446;2023-04-01T07:50:32;9.60;99.90
41294;DHT22;27037;52.010;4.446;2023-04-01T07:53:40;9.60;99.90
41294;DHT22;27037;52.010;4.446;2023-04-01T08:07:36;9.60;99.90
41294;DHT22;27037;52.010;4.446;2023-04-01T08:10:20;9.60;99.90
41294;DHT22;27037;52.010;4.446;2023-04-01T08:15:25;9.70;99.90
41294;DHT22;27037;52.010;4.446;2023-04-01T08:18:01;9.70;99.90
41294;DHT22;27037;52.010;4.446;2023-04-01T08:20:37;9.70;99.90
41294;DHT22;27037;52.010;4.446;2023-04-01T08:23:17;9.70;99.90
41294;DHT22;27037;52.010;4.446;2023-04-01T08:26:00;9.70;99.90
41294;DHT22;27037;52.010;4.446;2023-04-01T08:31:54;9.70;99.90
41294;DHT22;27037;52.010;4.446;2023-04-01T08:34:24;9.70;99.90
41294;DHT22;27037;52.010;4.446;2023-04-01T08:37:01;9.80;99.90
41294;DHT22;27037;52.010;4.446;2023-04-01T08:39:37;9.80;99.90
41294;DHT22;27037;52.010;4.446;2023-04-01T08:48:00;9.80;99.90
41294;DHT22;27037;52.010;4.446;2023-04-01T08:50:42;9.80;99.90
41294;DHT22;27037;52.010;4.446;2023-04-01T08:59:15;9.90;99.90
41294;DHT22;27037;52.010;4.446;2023-04-01T09:02:23;9.90;99.90
41294;DHT22;27037;52.010;4.446;2023-04-01T09:05:03;9.90;99.90
41294;DHT22;27037;52.010;4.446;2023-04-01T09:07:46;9.90;99.90
41294;DHT22;27037;52.010;4.446;2023-04-01T09:10:46;9.90;99.90
41294;DHT22;27037;52.010;4.446;2023-04-01T09:13:44;9.90;99.90
41294;DHT22;27037;52.010;4.446;2023-04-01T09:17:20;9.90;99.90
41294;DHT22;27037;52.010;4.446;2023-04-01T09:22:21;9.80;99.90
41294;DHT22;27037;52.010;4.446;2023-04-01T09:27:34;9.90;99.90
41294;DHT22;27037;52.010;4.446;2023-04-01T09:30:32;9.90;99.90
41294;DHT22;27037;52.010;4.446;2023-04-01T09:38:56;10.00;99.90
41294;DHT22;27037;52.010;4.446;2023-04-01T09:52:34;10.00;99.90
41294;DHT22;27037;52.010;4.446;2023-04-01T09:56:19;10.00;99.90
41294;DHT22;27037;52.010;4.446;2023-04-01T10:14:18;10.20;99.90
41294;DHT22;27037;52.010;4.446;2023-04-01T10:17:22;10.20;99.90
41294;DHT22;27037;52.010;4.446;2023-04-01T10:32:01;10.30;99.90
41294;DHT22;27037;52.010;4.446;2023-04-01T10:37:06;10.30;99.90
41294;DHT22;27037;52.010;4.446;2023-04-01T10:39:54;10.30;99.90
41294;DHT22;27037;52.010;4.446;2023-04-01T10:56:36;10.30;99.90
41294;DHT22;27037;52.010;4.446;2023-04-01T10:59:57;10.30;99.90
41294;DHT22;27037;52.010;4.446;2023-04-01T11:42:10;10.30;99.90
41294;DHT22;27037;52.010;4.446;2023-04-01T11:44:43;10.30;99.90
41294;DHT22;27037;52.010;4.446;2023-04-01T11:56:02;10.50;99.90
41294;DHT22;27037;52.010;4.446;2023-04-01T12:01:47;10.70;99.90
41294;DHT22;27037;52.010;4.446;2023-04-01T12:10:12;10.60;99.90
41294;DHT22;27037;52.010;4.446;2023-04-01T12:12:52;10.60;99.90
41294;DHT22;27037;52.010;4.446;2023-04-01T12:21:11;10.60;99.90
41294;DHT22;27037;52.010;4.446;2023-04-01T12:23:55;10.60;99.90
41294;DHT22;27037;52.010;4.446;2023-04-01T12:26:48;10.60;99.90
41294;DHT22;27037;52.010;4.446;2023-04-01T12:38:30;10.80;99.90
41294;DHT22;27037;52.010;4.446;2023-04-01T12:52:39;10.80;99.90
41294;DHT22;27037;52.010;4.446;2023-04-01T12:55:25;10.70;99.90
41294;DHT22;27037;52.010;4.446;2023-04-01T13:06:57;10.80;99.90
41294;DHT22;27037;52.010;4.446;2023-04-01T13:18:05;10.80;99.90
41294;DHT22;27037;52.010;4.446;2023-04-01T13:26:28;10.80;99.90
41294;DHT22;27037;52.010;4.446;2023-04-01T13:29:10;10.90;99.90
41294;DHT22;27037;52.010;4.446;2023-04-01T13:34:36;11.00;99.90
41294;DHT22;27037;52.010;4.446;2023-04-01T13:42:54;11.00;99.90
41294;DHT22;27037;52.010;4.446;2023-04-01T13:45:23;11.00;99.90
41294;DHT22;27037;52.010;4.446;2023-04-01T14:01:05;10.80;99.90
41294;DHT22;27037;52.010;4.446;2023-04-01T14:04:43;10.90;99.90
41294;DHT22;27037;52.010;4.446;2023-04-01T14:15:19;10.90;99.90
41294;DHT22;27037;52.010;4.446;2023-04-01T14:20:34;11.00;99.90
41294;DHT22;27037;52.010;4.446;2023-04-01T14:28:51;11.30;99.90
41294;DHT22;27037;52.010;4.446;2023-04-01T14:36:46;11.50;99.90
41294;DHT22;27037;52.010;4.446;2023-04-01T14:50:22;11.50;99.90
41294;DHT22;27037;52.010;4.446;2023-04-01T15:03:40;11.30;99.90
41294;DHT22;27037;52.010;4.446;2023-04-01T15:11:54;11.20;99.90
41294;DHT22;27037;52.010;4.446;2023-04-01T15:15:02;11.10;99.90
41294;DHT22;27037;52.010;4.446;2023-04-01T15:17:43;11.10;99.90
41294;DHT22;27037;52.010;4.446;2023-04-01T15:28:14;11.00;99.90
41294;DHT22;27037;52.010;4.446;2023-04-01T15:39:02;10.90;99.90
41294;DHT22;27037;52.010;4.446;2023-04-01T15:53:17;10.90;99.90
41294;DHT22;27037;52.010;4.446;2023-04-01T15:55:59;10.90;99.90
41294;DHT22;27037;52.010;4.446;2023-04-01T15:58:32;10.90;99.90
41294;DHT22;27037;52.010;4.446;2023-04-01T16:12:29;10.80;99.90
41294;DHT22;27037;52.010;4.446;2023-04-01T16:15:25;10.80;99.90
41294;DHT22;27037;52.010;4.446;2023-04-01T16:21:07;10.80;99.90
41294;DHT22;27037;52.010;4.446;2023-04-01T16:23:47;10.80;99.90
41294;DHT22;27037;52.010;4.446;2023-04-01T16:26:24;10.80;99.90
41294;DHT22;27037;52.010;4.446;2023-04-01T16:31:36;10.80;99.90
41294;DHT22;27037;52.010;4.446;2023-04-01T16:34:19;10.80;99.90
41294;DHT22;27037;52.010;4.446;2023-04-01T16:36:52;10.80;99.90
41294;DHT22;27037;52.010;4.446;2023-04-01T16:39:52;10.70;99.90
41294;DHT22;27037;52.010;4.446;2023-04-01T16:42:47;10.80;99.90
41294;DHT22;27037;52.010;4.446;2023-04-01T16:48:06;10.80;99.90
41294;DHT22;27037;52.010;4.446;2023-04-01T16:50:58;10.80;99.90
41294;DHT22;27037;52.010;4.446;2023-04-01T16:53:43;10.80;99.90
41294;DHT22;27037;52.010;4.446;2023-04-01T17:01:27;10.70;99.90
41294;DHT22;27037;52.010;4.446;2023-04-01T17:04:19;10.70;99.90
41294;DHT22;27037;52.010;4.446;2023-04-01T17:06:55;10.60;99.90
41294;DHT22;27037;52.010;4.446;2023-04-01T17:09:39;10.60;99.90
41294;DHT22;27037;52.010;4.446;2023-04-01T17:13:03;10.60;99.90
41294;DHT22;27037;52.010;4.446;2023-04-01T17:20:54;10.50;99.90
41294;DHT22;27037;52.010;4.446;2023-04-01T17:23:58;10.50;99.90
41294;DHT22;27037;52.010;4.446;2023-04-01T17:26:40;10.50;99.90
41294;DHT22;27037;52.010;4.446;2023-04-01T17:29:46;10.50;99.90
41294;DHT22;27037;52.010;4.446;2023-04-01T17:32:36;10.50;99.90
41294;DHT22;27037;52.010;4.446;2023-04-01T17:35:13;10.50;99.90
41294;DHT22;27037;52.010;4.446;2023-04-01T17:46:02;10.30;99.90
41294;DHT22;27037;52.010;4.446;2023-04-01T17:59:39;10.30;99.90
41294;DHT22;27037;52.010;4.446;2023-04-01T18:02:47;10.20;99.90
41294;DHT22;27037;52.010;4.446;2023-04-01T18:10:57;10.10;99.90
41294;DHT22;27037;52.010;4.446;2023-04-01T18:13:58;10.20;99.90
41294;DHT22;27037;52.010;4.446;2023-04-01T18:19:37;10.10;99.90
41294;DHT22;27037;52.010;4.446;2023-04-01T18:22:09;10.10;99.90
41294;DHT22;27037;52.010;4.446;2023-04-01T18:24:42;10.00;99.90
41294;DHT22;27037;52.010;4.446;2023-04-01T18:29:47;10.00;99.90
41294;DHT22;27037;52.010;4.446;2023-04-01T18:38:03;10.00;99.90
41294;DHT22;27037;52.010;4.446;2023-04-01T18:46:33;9.90;99.90
41294;DHT22;27037;52.010;4.446;2023-04-01T18:51:53;9.90;99.90
41294;DHT22;27037;52.010;4.446;2023-04-01T18:57:38;9.80;99.90
41294;DHT22;27037;52.010;4.446;2023-04-01T19:02:50;9.80;99.90
41294;DHT22;27037;52.010;4.446;2023-04-01T19:05:30;9.80;99.90
41294;DHT22;27037;52.010;4.446;2023-04-01T19:08:26;9.80;99.90
41294;DHT22;27037;52.010;4.446;2023-04-01T19:13:40;9.80;99.90
41294;DHT22;27037;52.010;4.446;2023-04-01T19:16:28;9.70;99.90
41294;DHT22;27037;52.010;4.446;2023-04-01T19:24:48;9.70;99.90
41294;DHT22;27037;52.010;4.446;2023-04-01T19:27:29;9.70;99.90
41294;DHT22;27037;52.010;4.446;2023-04-01T19:32:39;9.70;99.90
41294;DHT22;27037;52.010;4.446;2023-04-01T19:43:11;9.60;99.90
41294;DHT22;27037;52.010;4.446;2023-04-01T19:45:48;9.60;99.90
41294;DHT22;27037;52.010;4.446;2023-04-01T19:51:18;9.50;99.90
41294;DHT22;27037;52.010;4.446;2023-04-01T19:54:16;9.50;99.90
41294;DHT22;27037;52.010;4.446;2023-04-01T19:56:48;9.50;99.90
41294;DHT22;27037;52.010;4.446;2023-04-01T20:04:41;9.50;99.90
41294;DHT22;27037;52.010;4.446;2023-04-01T20:07:16;9.40;99.90
41294;DHT22;27037;52.010;4.446;2023-04-01T20:09:58;9.40;99.90
41294;DHT22;27037;52.010;4.446;2023-04-01T20:12:52;9.40;99.90
41294;DHT22;27037;52.010;4.446;2023-04-01T20:15:32;9.40;99.90
41294;DHT22;27037;52.010;4.446;2023-04-01T20:18:02;9.40;99.90
41294;DHT22;27037;52.010;4.446;2023-04-01T20:20:30;9.30;99.90
41294;DHT22;27037;52.010;4.446;2023-04-01T20:23:11;9.30;99.90
41294;DHT22;27037;52.010;4.446;2023-04-01T20:25:51;9.30;99.90
41294;DHT22;27037;52.010;4.446;2023-04-01T20:30:54;9.30;99.90
41294;DHT22;27037;52.010;4.446;2023-04-01T20:33:45;9.20;99.90
41294;DHT22;27037;52.010;4.446;2023-04-01T20:39:18;9.20;99.90
41294;DHT22;27037;52.010;4.446;2023-04-01T20:47:37;9.20;99.90
41294;DHT22;27037;52.010;4.446;2023-04-01T20:50:43;9.10;99.90
41294;DHT22;27037;52.010;4.446;2023-04-01T20:53:20;9.10;99.90
41294;DHT22;27037;52.010;4.446;2023-04-01T20:56:14;9.00;99.90
41294;DHT22;27037;52.010;4.446;2023-04-01T21:05:00;9.00;99.90
41294;DHT22;27037;52.010;4.446;2023-04-01T21:15:50;9.00;99.90
41294;DHT22;27037;52.010;4.446;2023-04-01T21:26:55;8.90;99.90
41294;DHT22;27037;52.010;4.446;2023-04-01T21:34:45;8.80;99.90
41294;DHT22;27037;52.010;4.446;2023-04-01T21:37:44;8.70;99.90
41294;DHT22;27037;52.010;4.446;2023-04-01T21:54:32;8.60;99.90
41294;DHT22;27037;52.010;4.446;2023-04-01T22:00:19;8.60;99.90
41294;DHT22;27037;52.010;4.446;2023-04-01T22:05:34;8.50;99.90
41294;DHT22;27037;52.010;4.446;2023-04-01T22:10:41;8.50;99.90
41294;DHT22;27037;52.010;4.446;2023-04-01T22:13:16;8.40;99.90
41294;DHT22;27037;52.010;4.446;2023-04-01T22:16:06;8.40;99.90
41294;DHT22;27037;52.010;4.446;2023-04-01T22:19:02;8.40;99.90
41294;DHT22;27037;52.010;4.446;2023-04-01T22:21:52;8.40;99.90
41294;DHT22;27037;52.010;4.446;2023-04-01T22:27:41;8.40;99.90
41294;DHT22;27037;52.010;4.446;2023-04-01T22:30:17;8.40;99.90
41294;DHT22;27037;52.010;4.446;2023-04-01T22:32:47;8.30;99.90
41294;DHT22;27037;52.010;4.446;2023-04-01T22:35:51;8.30;99.90
41294;DHT22;27037;52.010;4.446;2023-04-01T22:43:37;8.20;99.90
41294;DHT22;27037;52.010;4.446;2023-04-01T22:51:29;8.20;99.90
41294;DHT22;27037;52.010;4.446;2023-04-01T22:54:26;8.20;99.90
41294;DHT22;27037;52.010;4.446;2023-04-01T22:57:00;8.20;99.90
41294;DHT22;27037;52.010;4.446;2023-04-01T22:59:48;8.20;99.90
41294;DHT22;27037;52.010;4.446;2023-04-01T23:02:32;8.20;99.90
41294;DHT22;27037;52.010;4.446;2023-04-01T23:05:05;8.20;99.90
41294;DHT22;27037;52.010;4.446;2023-04-01T23:07:56;8.20;99.90
41294;DHT22;27037;52.010;4.446;2023-04-01T23:12:58;8.10;99.90
41294;DHT22;27037;52.010;4.446;2023-04-01T23:15:24;8.10;99.90
41294;DHT22;27037;52.010;4.446;2023-04-01T23:20:52;8.10;99.90
41294;DHT22;27037;52.010;4.446;2023-04-01T23:26:15;8.10;99.90
41294;DHT22;27037;52.010;4.446;2023-04-01T23:28:54;8.10;99.90
41294;DHT22;27037;52.010;4.446;2023-04-01T23:31:41;8.10;99.90
41294;DHT22;27037;52.010;4.446;2023-04-01T23:36:42;8.10;99.90
41294;DHT22;27037;52.010;4.446;2023-04-01T23:41:46;8.00;99.90
41294;DHT22;27037;52.010;4.446;2023-04-01T23:44:13;8.00;99.90
41294;DHT22;27037;52.010;4.446;2023-04-01T23:46:40;8.00;99.90
41294;DHT22;27037;52.010;4.446;2023-04-01T23:49:17;8.00;99.90
41294;DHT22;27037;52.010;4.446;2023-04-01T23:51:57;8.00;99.90
41294;DHT22;27037;52.010;4.446;2023-04-01T23:54:29;8.00;99.90
41294;DHT22;27037;52.010;4.446;2023-04-01T23:56:56;8.00;99.90
41294;DHT22;27037;52.010;4.446;2023-04-01T23:59:31;8.00;99.90
